Midland City, Alabama
Current Conditions -  °F | °C
As of 12:53 AM on Monday 24 Nov 2014 (Local Time) from KDHN Reporting Station
Light Rain Light Rain  
Wind Chill: 65°   Ceiling: 400
Heat Index: 65°   Visibility: 8mi
Dew Point: 65°   Wind: 9mph
Humidity: 100%   Direction: 190°S
Pressure: 29.84"   Gusts: NA
Location:  31.32°N, 85.49°W
Report Text: KDHN 240653Z AUTO 19008KT 8SM -RA OVC004 18/18 A2984 RMK AO2 SLP099 P0001 T01830183
Loading
Personal Weather Stations






























Interactive Weather Map New forecast layout! Learn more

10-Day Weather Forecast

Advertisements
Track Severe Weather on mobile